createdAt,value
2023-01-29T00:01:31.368Z,16.37
2023-01-29T00:03:57.901Z,18.70
2023-01-29T00:06:24.763Z,18.87
2023-01-29T00:08:51.282Z,15.80
2023-01-29T00:11:18.170Z,17.60
2023-01-29T00:13:44.690Z,15.83
2023-01-29T00:16:11.281Z,17.60
2023-01-29T00:18:40.531Z,18.87
2023-01-29T00:21:09.348Z,18.10
2023-01-29T00:23:35.917Z,17.50
2023-01-29T00:26:02.455Z,15.67
2023-01-29T00:28:28.974Z,16.93
2023-01-29T00:30:55.571Z,17.80
2023-01-29T00:33:22.165Z,20.17
2023-01-29T00:35:50.017Z,15.07
2023-01-29T00:38:16.522Z,16.00
2023-01-29T00:41:01.931Z,17.00
2023-01-29T00:43:47.256Z,15.97
2023-01-29T00:46:13.837Z,15.07
2023-01-29T00:48:40.380Z,16.97
2023-01-29T00:51:08.210Z,16.40
2023-01-29T00:53:34.728Z,16.93
2023-01-29T00:56:01.223Z,15.33
2023-01-29T00:58:34.469Z,17.80
2023-01-29T01:01:02.366Z,16.00
2023-01-29T01:03:29.740Z,16.40
2023-01-29T01:06:03.557Z,15.63
2023-01-29T01:08:50.063Z,15.50
2023-01-29T01:11:16.617Z,14.33
2023-01-29T01:13:43.335Z,14.47
2023-01-29T01:16:10.751Z,16.67
2023-01-29T01:18:38.038Z,15.57
2023-01-29T01:21:05.123Z,18.77
2023-01-29T01:23:33.173Z,16.57
2023-01-29T01:26:00.094Z,17.90
2023-01-29T01:28:26.932Z,17.73
2023-01-29T01:30:53.600Z,16.07
2023-01-29T01:33:20.294Z,15.13
2023-01-29T01:35:46.835Z,15.93
2023-01-29T01:38:13.361Z,14.60
2023-01-29T01:40:45.448Z,17.47
2023-01-29T01:43:12.050Z,16.30
2023-01-29T01:45:38.794Z,15.60
2023-01-29T01:48:07.519Z,16.70
2023-01-29T01:50:38.346Z,16.47
2023-01-29T01:53:07.574Z,20.17
2023-01-29T01:55:37.765Z,15.70
2023-01-29T01:58:09.995Z,18.07
2023-01-29T02:00:37.073Z,17.53
2023-01-29T02:03:23.307Z,17.30
2023-01-29T02:06:09.120Z,15.57
2023-01-29T02:09:00.376Z,14.63
2023-01-29T02:11:27.221Z,14.90
2023-01-29T02:13:55.089Z,18.63
2023-01-29T02:16:22.032Z,16.70
2023-01-29T02:18:49.314Z,17.13
2023-01-29T02:21:33.691Z,15.67
2023-01-29T02:24:26.183Z,15.67
2023-01-29T02:27:09.015Z,15.03
2023-01-29T02:29:51.875Z,15.97
2023-01-29T02:32:28.141Z,17.13
2023-01-29T02:35:24.463Z,17.80
2023-01-29T02:37:58.051Z,15.03
2023-01-29T02:40:31.248Z,15.87
2023-01-29T02:43:08.617Z,16.27
2023-01-29T02:45:46.446Z,14.93
2023-01-29T02:48:17.488Z,16.10
2023-01-29T02:50:49.291Z,17.53
2023-01-29T02:54:08.679Z,15.17
2023-01-29T02:56:40.492Z,16.10
2023-01-29T02:59:11.883Z,17.20
2023-01-29T03:01:46.054Z,17.37
2023-01-29T03:04:22.512Z,14.73
2023-01-29T03:06:54.561Z,17.23
2023-01-29T03:09:26.697Z,17.80
2023-01-29T03:11:59.610Z,16.20
2023-01-29T03:14:52.358Z,16.67
2023-01-29T03:17:23.213Z,17.23
2023-01-29T03:19:50.853Z,18.70
2023-01-29T03:22:21.861Z,15.63
2023-01-29T03:25:11.114Z,16.17
2023-01-29T03:28:02.700Z,16.50
2023-01-29T03:30:50.735Z,17.17
2023-01-29T03:33:23.903Z,14.33
2023-01-29T03:35:59.207Z,17.53
2023-01-29T03:38:29.507Z,17.67
2023-01-29T03:40:59.681Z,19.40
2023-01-29T03:43:35.207Z,16.57
2023-01-29T03:46:08.344Z,17.87
2023-01-29T03:48:40.155Z,18.30
2023-01-29T03:51:17.005Z,18.80
2023-01-29T03:53:50.382Z,19.37
2023-01-29T03:56:32.112Z,16.53
2023-01-29T03:59:02.534Z,14.60
2023-01-29T04:01:35.645Z,16.63
2023-01-29T04:04:08.316Z,16.93
2023-01-29T04:06:37.931Z,18.17
2023-01-29T04:09:07.453Z,18.23
2023-01-29T04:11:38.057Z,16.52
2023-01-29T04:14:07.324Z,15.57
2023-01-29T04:16:37.957Z,20.90
2023-01-29T04:19:05.993Z,19.00
2023-01-29T04:21:32.952Z,23.67
2023-01-29T04:23:59.584Z,17.37
2023-01-29T04:26:44.585Z,19.53
2023-01-29T04:29:22.149Z,16.67
2023-01-29T04:32:00.145Z,17.77
2023-01-29T04:34:29.389Z,16.13
2023-01-29T04:37:04.727Z,18.30
2023-01-29T04:39:40.975Z,16.40
2023-01-29T04:42:14.199Z,18.60
2023-01-29T04:44:49.726Z,18.80
2023-01-29T04:47:24.645Z,18.23
2023-01-29T04:49:59.081Z,18.53
2023-01-29T04:52:34.030Z,17.50
2023-01-29T04:55:05.845Z,17.77
2023-01-29T04:57:37.000Z,18.23
2023-01-29T05:00:10.035Z,18.07
2023-01-29T05:02:39.314Z,18.90
2023-01-29T05:05:09.582Z,18.35
2023-01-29T05:07:39.260Z,16.50
2023-01-29T05:12:34.352Z,17.30
2023-01-29T05:15:03.168Z,17.03
2023-01-29T05:17:29.995Z,16.98
2023-01-29T05:19:56.946Z,18.37
2023-01-29T05:22:26.551Z,15.87
2023-01-29T05:24:53.095Z,20.88
2023-01-29T05:27:41.170Z,17.50
2023-01-29T05:30:09.776Z,17.20
2023-01-29T05:32:36.305Z,15.23
2023-01-29T05:35:02.918Z,20.80
2023-01-29T05:37:30.746Z,19.03
2023-01-29T05:39:57.276Z,17.67
2023-01-29T05:42:24.198Z,18.83
2023-01-29T05:44:50.722Z,18.73
2023-01-29T05:47:19.191Z,18.43
2023-01-29T05:49:45.711Z,19.10
2023-01-29T05:52:12.191Z,19.33
2023-01-29T05:54:40.018Z,17.77
2023-01-29T05:57:06.507Z,20.30
2023-01-29T05:59:33.044Z,16.93
2023-01-29T06:01:59.588Z,18.47
2023-01-29T06:04:26.166Z,18.47
2023-01-29T06:06:52.651Z,18.80
2023-01-29T06:09:19.229Z,16.80
2023-01-29T06:11:47.123Z,16.93
2023-01-29T06:14:13.649Z,18.13
2023-01-29T06:16:40.190Z,16.47
2023-01-29T06:19:06.678Z,18.07
2023-01-29T06:21:33.269Z,16.03
2023-01-29T06:23:59.881Z,16.47
2023-01-29T06:26:26.415Z,20.27
2023-01-29T06:28:54.295Z,16.80
2023-01-29T06:31:36.871Z,17.03
2023-01-29T06:34:04.714Z,16.40
2023-01-29T06:36:31.311Z,16.87
2023-01-29T06:38:57.821Z,18.77
2023-01-29T06:41:25.504Z,18.47
2023-01-29T06:43:53.623Z,16.53
2023-01-29T06:46:20.218Z,18.90
2023-01-29T06:48:46.863Z,17.23
2023-01-29T06:51:13.416Z,16.67
2023-01-29T06:53:40.462Z,17.90
2023-01-29T06:56:07.777Z,19.90
2023-01-29T06:58:37.060Z,15.27
2023-01-29T07:01:06.199Z,16.10
2023-01-29T07:03:32.855Z,20.40
2023-01-29T07:05:59.594Z,17.93
2023-01-29T07:08:26.256Z,17.23
2023-01-29T07:10:52.820Z,16.30
2023-01-29T07:13:19.319Z,17.67
2023-01-29T07:15:46.170Z,18.40
2023-01-29T07:18:14.035Z,15.93
2023-01-29T07:20:41.691Z,18.10
2023-01-29T07:23:10.847Z,17.30
2023-01-29T07:25:37.492Z,17.48
2023-01-29T07:28:04.146Z,17.97
2023-01-29T07:30:30.741Z,16.57
2023-01-29T07:33:01.640Z,18.67
2023-01-29T07:35:29.598Z,19.57
2023-01-29T07:37:56.080Z,15.57
2023-01-29T07:40:22.900Z,17.80
2023-01-29T07:42:49.443Z,16.30
2023-01-29T07:45:15.977Z,17.73
2023-01-29T07:47:42.460Z,16.17
2023-01-29T07:50:10.126Z,17.33
2023-01-29T07:52:37.980Z,15.43
2023-01-29T07:55:05.116Z,16.97
2023-01-29T07:57:31.687Z,18.03
2023-01-29T07:59:58.182Z,18.63
2023-01-29T08:02:24.769Z,19.77
2023-01-29T08:04:51.309Z,17.83
2023-01-29T08:07:17.816Z,17.23
2023-01-29T08:09:48.034Z,19.20
2023-01-29T08:12:14.696Z,29.90
2023-01-29T08:14:41.173Z,18.37
2023-01-29T08:17:07.745Z,18.03
2023-01-29T08:19:34.243Z,27.43
2023-01-29T08:22:00.757Z,18.13
2023-01-29T08:24:36.087Z,20.83
2023-01-29T08:27:15.123Z,20.37
2023-01-29T08:29:41.641Z,18.67
2023-01-29T08:32:10.170Z,30.63
2023-01-29T08:34:36.712Z,20.03
2023-01-29T08:37:03.239Z,26.83
2023-01-29T08:39:29.728Z,21.37
2023-01-29T08:41:56.229Z,24.47
2023-01-29T08:44:24.115Z,30.77
2023-01-29T08:46:50.647Z,32.87
2023-01-29T08:49:17.146Z,28.83
2023-01-29T08:51:43.639Z,28.27
2023-01-29T08:54:10.140Z,31.70
2023-01-29T08:56:36.756Z,22.67
2023-01-29T08:59:03.303Z,20.57
2023-01-29T09:01:31.168Z,22.50
2023-01-29T09:03:57.706Z,22.23
2023-01-29T09:06:24.244Z,25.73
2023-01-29T09:08:50.845Z,22.87
2023-01-29T09:11:17.403Z,20.73
2023-01-29T09:13:43.988Z,22.77
2023-01-29T09:16:10.770Z,23.80
2023-01-29T09:18:38.616Z,21.10
2023-01-29T09:21:05.686Z,19.87
2023-01-29T09:23:32.238Z,19.37
2023-01-29T09:25:59.079Z,23.47
2023-01-29T09:28:26.051Z,22.97
2023-01-29T09:30:52.963Z,21.47
2023-01-29T09:33:19.713Z,18.97
2023-01-29T09:35:47.552Z,18.33
2023-01-29T09:38:14.639Z,23.20
2023-01-29T09:40:51.669Z,38.63
2023-01-29T09:43:20.436Z,21.03
2023-01-29T09:45:55.030Z,21.65
2023-01-29T09:48:26.488Z,20.20
2023-01-29T09:50:58.564Z,20.20
2023-01-29T09:53:31.586Z,21.07
2023-01-29T09:56:02.633Z,24.83
2023-01-29T09:58:32.838Z,22.27
2023-01-29T10:01:08.458Z,27.57
2023-01-29T10:03:50.803Z,21.07
2023-01-29T10:06:39.464Z,23.43
2023-01-29T10:09:41.361Z,19.63
2023-01-29T10:12:25.564Z,18.27
2023-01-29T10:15:03.819Z,18.87
2023-01-29T10:17:49.425Z,19.23
2023-01-29T10:20:30.753Z,23.37
2023-01-29T10:23:06.976Z,21.63
2023-01-29T10:25:39.330Z,22.67
2023-01-29T10:28:15.809Z,18.83
2023-01-29T10:30:48.260Z,24.53
2023-01-29T10:33:19.514Z,18.77
2023-01-29T10:35:50.276Z,19.93
2023-01-29T10:38:28.336Z,19.80
2023-01-29T10:41:04.420Z,27.67
2023-01-29T10:43:38.996Z,23.23
2023-01-29T10:46:19.177Z,19.70
2023-01-29T10:48:56.303Z,19.80
2023-01-29T10:51:40.741Z,19.03
2023-01-29T10:54:31.189Z,20.60
2023-01-29T10:57:09.971Z,19.67
2023-01-29T10:59:54.627Z,23.00
2023-01-29T11:02:22.594Z,21.27
2023-01-29T11:04:49.311Z,18.97
2023-01-29T11:07:18.694Z,19.87
2023-01-29T11:09:57.223Z,16.83
2023-01-29T11:12:30.374Z,19.50
2023-01-29T11:15:01.644Z,18.33
2023-01-29T11:17:28.205Z,19.03
2023-01-29T11:19:58.175Z,17.37
2023-01-29T11:22:26.219Z,18.13
2023-01-29T11:25:10.569Z,16.50
2023-01-29T11:27:43.319Z,16.80
2023-01-29T11:30:16.564Z,15.90
2023-01-29T11:32:43.446Z,18.20
2023-01-29T11:35:21.849Z,15.93
2023-01-29T11:37:48.487Z,15.23
2023-01-29T11:40:40.674Z,18.77
2023-01-29T11:43:19.584Z,17.03
2023-01-29T11:45:47.967Z,17.83
2023-01-29T11:48:16.755Z,22.00
2023-01-29T11:50:45.303Z,15.77
2023-01-29T11:53:33.651Z,18.63
2023-01-29T11:56:05.408Z,19.57
2023-01-29T11:58:35.153Z,14.13
2023-01-29T12:01:02.938Z,32.47
2023-01-29T12:03:35.574Z,18.20
2023-01-29T12:06:07.347Z,17.10
2023-01-29T12:08:37.122Z,17.80
2023-01-29T12:13:40.609Z,18.43
2023-01-29T12:16:17.072Z,13.97
2023-01-29T12:18:49.919Z,14.73
2023-01-29T12:21:24.102Z,18.17
2023-01-29T12:23:57.762Z,16.93
2023-01-29T12:26:32.513Z,14.87
2023-01-29T12:29:16.542Z,15.33
2023-01-29T12:31:50.182Z,16.27
2023-01-29T12:34:23.737Z,16.30
2023-01-29T12:36:56.141Z,16.70
2023-01-29T12:39:23.083Z,16.57
2023-01-29T12:41:57.349Z,14.80
2023-01-29T12:44:30.487Z,17.03
2023-01-29T12:47:01.558Z,17.83
2023-01-29T12:49:33.100Z,19.97
2023-01-29T12:52:07.937Z,17.33
2023-01-29T12:54:39.107Z,20.80
2023-01-29T12:57:19.016Z,11.90
2023-01-29T12:59:50.136Z,13.73
2023-01-29T13:02:30.371Z,17.23
2023-01-29T13:05:01.022Z,13.77
2023-01-29T13:07:32.771Z,17.40
2023-01-29T13:10:07.366Z,16.90
2023-01-29T13:12:37.041Z,16.83
2023-01-29T13:17:36.806Z,17.35
2023-01-29T13:20:10.969Z,14.47
2023-01-29T13:22:40.827Z,15.47
2023-01-29T13:25:15.636Z,11.73
2023-01-29T13:27:45.782Z,14.33
2023-01-29T13:30:24.980Z,13.77
2023-01-29T13:32:54.153Z,14.32
2023-01-29T13:35:23.273Z,16.88
2023-01-29T13:37:52.148Z,15.30
2023-01-29T13:40:24.488Z,18.08
2023-01-29T13:42:54.771Z,16.57
2023-01-29T13:45:23.625Z,26.47
2023-01-29T13:47:52.224Z,20.23
2023-01-29T13:50:24.059Z,21.53
2023-01-29T13:52:56.416Z,22.87
2023-01-29T13:55:31.149Z,19.07
2023-01-29T13:58:00.313Z,15.27
2023-01-29T14:00:48.410Z,16.60
2023-01-29T14:04:02.205Z,18.50
2023-01-29T14:06:52.228Z,15.73
2023-01-29T14:09:53.465Z,15.90
2023-01-29T14:12:40.909Z,17.60
2023-01-29T14:15:21.872Z,16.93
2023-01-29T14:17:59.553Z,16.77
2023-01-29T14:20:45.102Z,16.00
2023-01-29T14:23:23.745Z,15.43
2023-01-29T14:25:50.580Z,14.60
2023-01-29T14:28:22.684Z,18.60
2023-01-29T14:30:51.835Z,14.63
2023-01-29T14:33:26.506Z,16.17
2023-01-29T14:35:56.221Z,17.43
2023-01-29T14:40:49.927Z,15.23
2023-01-29T14:43:21.644Z,16.27
2023-01-29T14:45:49.956Z,16.03
2023-01-29T14:48:36.947Z,15.23
2023-01-29T14:51:10.897Z,16.57
2023-01-29T14:53:54.466Z,18.10
2023-01-29T14:56:27.645Z,15.70
2023-01-29T14:59:00.152Z,14.70
2023-01-29T15:01:32.428Z,13.73
2023-01-29T15:04:03.521Z,16.47
2023-01-29T15:06:38.669Z,15.53
2023-01-29T15:09:12.560Z,15.50
2023-01-29T15:11:48.605Z,15.50
2023-01-29T15:14:25.564Z,15.17
2023-01-29T15:17:02.306Z,17.37
2023-01-29T15:19:34.587Z,12.33
2023-01-29T15:22:12.704Z,15.63
2023-01-29T15:24:42.006Z,13.10
2023-01-29T15:27:13.167Z,15.43
2023-01-29T15:29:41.575Z,14.10
2023-01-29T15:32:16.683Z,16.37
2023-01-29T15:34:44.262Z,12.77
2023-01-29T15:37:25.558Z,13.43
2023-01-29T15:39:53.211Z,14.33
2023-01-29T15:42:25.597Z,13.10
2023-01-29T15:44:54.323Z,15.23
2023-01-29T15:47:25.215Z,14.30
2023-01-29T15:49:52.649Z,13.27
2023-01-29T15:52:22.803Z,15.33
2023-01-29T15:54:49.595Z,13.23
2023-01-29T15:57:23.441Z,14.73
2023-01-29T15:59:52.361Z,14.40
2023-01-29T16:02:27.895Z,14.63
2023-01-29T16:04:55.691Z,15.23
2023-01-29T16:07:22.651Z,16.73
2023-01-29T16:09:50.625Z,13.53
2023-01-29T16:12:17.546Z,16.23
2023-01-29T16:14:45.955Z,12.87
2023-01-29T16:17:25.251Z,14.10
2023-01-29T16:19:58.537Z,13.48
2023-01-29T16:22:26.709Z,13.60
2023-01-29T16:24:54.557Z,15.20
2023-01-29T16:27:21.250Z,13.63
2023-01-29T16:29:47.929Z,15.83
2023-01-29T16:32:16.360Z,13.23
2023-01-29T16:34:48.135Z,13.60
2023-01-29T16:37:22.573Z,16.13
2023-01-29T16:39:52.346Z,15.67
2023-01-29T16:44:51.236Z,15.67
2023-01-29T16:47:25.317Z,12.70
2023-01-29T16:49:54.448Z,16.00
2023-01-29T16:52:24.628Z,14.15
2023-01-29T16:54:51.648Z,14.60
2023-01-29T16:57:21.320Z,16.50
2023-01-29T17:02:22.977Z,14.43
2023-01-29T17:04:53.822Z,12.20
2023-01-29T17:07:22.211Z,14.87
2023-01-29T17:09:51.807Z,13.43
2023-01-29T17:12:21.446Z,14.75
2023-01-29T17:14:58.379Z,13.52
2023-01-29T17:17:29.562Z,12.43
2023-01-29T17:19:57.556Z,13.50
2023-01-29T17:22:24.309Z,12.97
2023-01-29T17:24:51.509Z,15.00
2023-01-29T17:27:20.590Z,14.83
2023-01-29T17:29:47.807Z,15.40
2023-01-29T17:32:14.480Z,16.27
2023-01-29T17:34:41.073Z,14.33
2023-01-29T17:37:13.478Z,15.47
2023-01-29T17:39:40.244Z,11.50
2023-01-29T17:42:12.230Z,22.07
2023-01-29T17:44:38.748Z,13.27
2023-01-29T17:47:05.452Z,15.90
2023-01-29T17:49:38.088Z,17.70
2023-01-29T17:52:05.210Z,20.07
2023-01-29T17:54:33.280Z,16.77
2023-01-29T17:56:59.783Z,16.63
2023-01-29T17:59:29.983Z,17.17
2023-01-29T18:01:56.583Z,18.77
2023-01-29T18:04:23.424Z,17.87
2023-01-29T18:06:51.655Z,18.23
2023-01-29T18:09:22.411Z,17.27
2023-01-29T18:11:51.045Z,17.40
2023-01-29T18:14:17.730Z,20.20
2023-01-29T18:16:45.022Z,16.73
2023-01-29T18:19:14.899Z,16.80
2023-01-29T18:21:41.410Z,16.23
2023-01-29T18:24:08.273Z,16.57
2023-01-29T18:26:35.859Z,15.50
2023-01-29T18:29:04.131Z,17.63
2023-01-29T18:31:30.695Z,14.33
2023-01-29T18:33:57.252Z,18.27
2023-01-29T18:36:24.010Z,17.37
2023-01-29T18:38:50.533Z,15.33
2023-01-29T18:41:17.110Z,15.53
2023-01-29T18:43:44.335Z,16.97
2023-01-29T18:46:12.296Z,15.57
2023-01-29T18:48:40.927Z,16.40
2023-01-29T18:51:08.270Z,14.88
2023-01-29T18:53:34.770Z,18.13
2023-01-29T18:56:06.405Z,16.47
2023-01-29T18:58:36.132Z,14.67
2023-01-29T19:01:08.908Z,17.40
2023-01-29T19:03:37.707Z,14.70
2023-01-29T19:06:07.000Z,15.77
2023-01-29T19:08:33.982Z,16.75
2023-01-29T19:11:02.430Z,16.77
2023-01-29T19:13:29.468Z,16.23
2023-01-29T19:15:55.986Z,16.23
2023-01-29T19:18:23.294Z,15.33
2023-01-29T19:20:51.241Z,14.23
2023-01-29T19:23:17.844Z,16.80
2023-01-29T19:25:44.986Z,16.80
2023-01-29T19:28:11.589Z,14.60
2023-01-29T19:30:38.269Z,16.47
2023-01-29T19:33:05.012Z,16.57
2023-01-29T19:35:32.606Z,15.23
2023-01-29T19:38:01.147Z,13.23
2023-01-29T19:40:27.651Z,15.43
2023-01-29T19:42:55.413Z,15.30
2023-01-29T19:45:37.473Z,15.63
2023-01-29T19:48:13.382Z,13.40
2023-01-29T19:50:39.882Z,16.00
2023-01-29T19:53:07.780Z,15.93
2023-01-29T19:55:34.285Z,12.90
2023-01-29T19:58:00.832Z,15.57
2023-01-29T20:00:27.363Z,14.07
2023-01-29T20:02:53.904Z,15.63
2023-01-29T20:05:20.685Z,16.40
2023-01-29T20:07:47.368Z,15.67
2023-01-29T20:10:17.403Z,15.40
2023-01-29T20:12:45.121Z,15.87
2023-01-29T20:15:11.689Z,16.17
2023-01-29T20:17:38.455Z,13.63
2023-01-29T20:20:06.644Z,15.63
2023-01-29T20:22:33.223Z,16.83
2023-01-29T20:24:59.763Z,16.63
2023-01-29T20:27:27.635Z,15.63
2023-01-29T20:29:54.121Z,16.37
2023-01-29T20:32:20.690Z,15.13
2023-01-29T20:34:51.833Z,14.13
2023-01-29T20:37:19.206Z,14.03
2023-01-29T20:39:45.853Z,16.33
2023-01-29T20:42:12.617Z,12.53
2023-01-29T20:44:40.795Z,13.97
2023-01-29T20:47:07.390Z,15.00
2023-01-29T20:49:34.188Z,14.33
2023-01-29T20:52:00.735Z,11.00
2023-01-29T20:54:29.304Z,16.70
2023-01-29T20:56:55.918Z,17.67
2023-01-29T20:59:23.045Z,14.47
2023-01-29T21:01:50.988Z,17.63
2023-01-29T21:04:17.563Z,14.13
2023-01-29T21:06:44.322Z,12.97
2023-01-29T21:09:10.858Z,14.77
2023-01-29T21:11:37.394Z,16.43
2023-01-29T21:14:04.113Z,14.50
2023-01-29T21:16:30.729Z,13.77
2023-01-29T21:18:58.682Z,15.13
2023-01-29T21:21:26.527Z,13.03
2023-01-29T21:23:53.438Z,15.30
2023-01-29T21:26:20.082Z,14.63
2023-01-29T21:28:46.618Z,15.40
2023-01-29T21:31:17.568Z,14.63
2023-01-29T21:33:44.420Z,15.03
2023-01-29T21:36:12.620Z,16.43
2023-01-29T21:38:39.563Z,13.20
2023-01-29T21:41:08.651Z,13.87
2023-01-29T21:43:35.807Z,13.77
2023-01-29T21:46:11.316Z,11.73
2023-01-29T21:48:39.295Z,15.63
2023-01-29T21:51:06.419Z,14.37
2023-01-29T21:53:34.818Z,14.33
2023-01-29T21:56:02.269Z,14.60
2023-01-29T21:58:29.778Z,14.07
2023-01-29T22:00:56.606Z,12.00
2023-01-29T22:03:38.888Z,14.10
2023-01-29T22:06:06.020Z,13.17
2023-01-29T22:08:33.911Z,12.37
2023-01-29T22:11:05.735Z,13.57
2023-01-29T22:13:32.434Z,12.80
2023-01-29T22:15:58.968Z,13.90
2023-01-29T22:18:25.788Z,12.33
2023-01-29T22:20:52.860Z,12.00
2023-01-29T22:23:19.455Z,11.87
2023-01-29T22:25:47.316Z,15.50
2023-01-29T22:28:14.818Z,14.33
2023-01-29T22:30:41.376Z,13.97
2023-01-29T22:33:08.371Z,11.97
2023-01-29T22:35:34.875Z,11.53
2023-01-29T22:38:01.434Z,12.57
2023-01-29T22:40:27.939Z,14.90
2023-01-29T22:42:55.888Z,13.03
2023-01-29T22:45:22.391Z,12.83
2023-01-29T22:47:48.887Z,16.53
2023-01-29T22:50:15.708Z,13.73
2023-01-29T22:52:42.812Z,14.33
2023-01-29T22:55:10.760Z,14.33
2023-01-29T22:57:37.514Z,14.70
2023-01-29T23:00:09.026Z,16.00
2023-01-29T23:02:35.667Z,12.67
2023-01-29T23:05:02.428Z,15.13
2023-01-29T23:07:28.947Z,14.03
2023-01-29T23:09:55.457Z,12.80
2023-01-29T23:12:21.957Z,14.53
2023-01-29T23:14:48.485Z,16.13
2023-01-29T23:17:16.440Z,13.57
2023-01-29T23:19:42.998Z,15.63
2023-01-29T23:22:09.481Z,15.67
2023-01-29T23:24:36.019Z,13.97
2023-01-29T23:27:14.988Z,12.43
2023-01-29T23:29:42.182Z,11.68
2023-01-29T23:32:09.148Z,14.37
2023-01-29T23:34:37.167Z,13.80
2023-01-29T23:37:04.030Z,11.63
2023-01-29T23:39:30.597Z,12.63
2023-01-29T23:41:57.320Z,12.93
2023-01-29T23:44:23.855Z,12.07
2023-01-29T23:46:50.437Z,13.70
2023-01-29T23:49:17.007Z,12.40
2023-01-29T23:51:45.786Z,15.13
2023-01-29T23:54:13.216Z,12.35
2023-01-29T23:56:39.781Z,12.20
2023-01-29T23:59:06.274Z,13.87
